sensor_id;sensor_type;location;lat;lon;timestamp;P1;durP1;ratioP1;P2;durP2;ratioP2
21569;SDS011;57598;50.888;4.746;2023-05-23T00:02:18;58.13;;;52.30;;
21569;SDS011;57598;50.888;4.746;2023-05-23T00:04:45;52.60;;;47.13;;
21569;SDS011;57598;50.888;4.746;2023-05-23T00:07:15;50.95;;;46.25;;
21569;SDS011;57598;50.888;4.746;2023-05-23T00:09:42;59.53;;;51.83;;
21569;SDS011;57598;50.888;4.746;2023-05-23T00:12:09;52.50;;;47.25;;
21569;SDS011;57598;50.888;4.746;2023-05-23T00:14:36;53.72;;;48.15;;
21569;SDS011;57598;50.888;4.746;2023-05-23T00:17:04;61.78;;;55.38;;
21569;SDS011;57598;50.888;4.746;2023-05-23T00:19:32;52.15;;;47.38;;
21569;SDS011;57598;50.888;4.746;2023-05-23T00:22:00;58.25;;;52.60;;
21569;SDS011;57598;50.888;4.746;2023-05-23T00:24:28;58.92;;;52.95;;
21569;SDS011;57598;50.888;4.746;2023-05-23T00:26:55;49.08;;;44.67;;
21569;SDS011;57598;50.888;4.746;2023-05-23T00:29:23;63.15;;;54.42;;
21569;SDS011;57598;50.888;4.746;2023-05-23T00:31:50;61.55;;;54.72;;
21569;SDS011;57598;50.888;4.746;2023-05-23T00:34:16;53.92;;;48.65;;
21569;SDS011;57598;50.888;4.746;2023-05-23T00:36:44;53.75;;;49.05;;
21569;SDS011;57598;50.888;4.746;2023-05-23T00:39:14;51.95;;;47.05;;
21569;SDS011;57598;50.888;4.746;2023-05-23T00:41:45;50.75;;;46.25;;
21569;SDS011;57598;50.888;4.746;2023-05-23T00:44:13;45.10;;;41.08;;
21569;SDS011;57598;50.888;4.746;2023-05-23T00:46:40;55.80;;;49.83;;
21569;SDS011;57598;50.888;4.746;2023-05-23T00:49:11;56.05;;;50.25;;
21569;SDS011;57598;50.888;4.746;2023-05-23T00:51:38;48.13;;;43.75;;
21569;SDS011;57598;50.888;4.746;2023-05-23T00:54:07;60.53;;;51.47;;
21569;SDS011;57598;50.888;4.746;2023-05-23T00:56:34;60.90;;;54.40;;
21569;SDS011;57598;50.888;4.746;2023-05-23T00:59:05;59.55;;;53.22;;
21569;SDS011;57598;50.888;4.746;2023-05-23T01:01:32;54.55;;;49.65;;
21569;SDS011;57598;50.888;4.746;2023-05-23T01:04:01;50.88;;;45.97;;
21569;SDS011;57598;50.888;4.746;2023-05-23T01:06:28;53.45;;;48.60;;
21569;SDS011;57598;50.888;4.746;2023-05-23T01:08:57;65.45;;;57.17;;
21569;SDS011;57598;50.888;4.746;2023-05-23T01:11:28;53.03;;;47.90;;
21569;SDS011;57598;50.888;4.746;2023-05-23T01:14:00;49.97;;;45.53;;
21569;SDS011;57598;50.888;4.746;2023-05-23T01:16:37;50.97;;;46.22;;
21569;SDS011;57598;50.888;4.746;2023-05-23T01:19:16;58.20;;;51.97;;
21569;SDS011;57598;50.888;4.746;2023-05-23T01:22:05;55.03;;;49.05;;
21569;SDS011;57598;50.888;4.746;2023-05-23T01:24:39;58.53;;;52.20;;
21569;SDS011;57598;50.888;4.746;2023-05-23T01:27:18;60.55;;;54.00;;
21569;SDS011;57598;50.888;4.746;2023-05-23T01:29:56;51.60;;;46.22;;
21569;SDS011;57598;50.888;4.746;2023-05-23T01:32:27;55.88;;;50.53;;
21569;SDS011;57598;50.888;4.746;2023-05-23T01:34:55;54.05;;;48.15;;
21569;SDS011;57598;50.888;4.746;2023-05-23T01:37:22;49.35;;;44.85;;
21569;SDS011;57598;50.888;4.746;2023-05-23T01:39:49;52.45;;;47.03;;
21569;SDS011;57598;50.888;4.746;2023-05-23T01:42:16;48.97;;;44.65;;
21569;SDS011;57598;50.888;4.746;2023-05-23T01:44:43;46.83;;;42.60;;
21569;SDS011;57598;50.888;4.746;2023-05-23T01:47:12;61.90;;;53.25;;
21569;SDS011;57598;50.888;4.746;2023-05-23T01:49:41;48.97;;;44.80;;
21569;SDS011;57598;50.888;4.746;2023-05-23T01:52:10;46.08;;;42.35;;
21569;SDS011;57598;50.888;4.746;2023-05-23T01:54:38;49.50;;;44.53;;
21569;SDS011;57598;50.888;4.746;2023-05-23T01:57:07;53.20;;;48.13;;
21569;SDS011;57598;50.888;4.746;2023-05-23T01:59:35;49.17;;;44.83;;
21569;SDS011;57598;50.888;4.746;2023-05-23T02:02:03;48.13;;;43.95;;
21569;SDS011;57598;50.888;4.746;2023-05-23T02:04:31;62.40;;;55.80;;
21569;SDS011;57598;50.888;4.746;2023-05-23T02:06:59;53.33;;;48.65;;
21569;SDS011;57598;50.888;4.746;2023-05-23T02:09:26;58.28;;;52.28;;
21569;SDS011;57598;50.888;4.746;2023-05-23T02:11:53;54.95;;;49.85;;
21569;SDS011;57598;50.888;4.746;2023-05-23T02:14:20;45.83;;;42.13;;
21569;SDS011;57598;50.888;4.746;2023-05-23T02:16:48;53.45;;;48.13;;
21569;SDS011;57598;50.888;4.746;2023-05-23T02:19:16;52.17;;;47.20;;
21569;SDS011;57598;50.888;4.746;2023-05-23T02:21:45;54.83;;;49.63;;
21569;SDS011;57598;50.888;4.746;2023-05-23T02:24:12;53.63;;;48.67;;
21569;SDS011;57598;50.888;4.746;2023-05-23T02:26:39;62.63;;;55.92;;
21569;SDS011;57598;50.888;4.746;2023-05-23T02:29:06;47.60;;;43.60;;
21569;SDS011;57598;50.888;4.746;2023-05-23T02:31:33;63.55;;;55.47;;
21569;SDS011;57598;50.888;4.746;2023-05-23T02:34:01;50.13;;;45.78;;
21569;SDS011;57598;50.888;4.746;2023-05-23T02:36:28;51.15;;;46.67;;
21569;SDS011;57598;50.888;4.746;2023-05-23T02:38:58;61.17;;;54.50;;
21569;SDS011;57598;50.888;4.746;2023-05-23T02:41:25;54.53;;;49.45;;
21569;SDS011;57598;50.888;4.746;2023-05-23T02:43:52;63.65;;;52.80;;
21569;SDS011;57598;50.888;4.746;2023-05-23T02:46:19;55.50;;;50.40;;
21569;SDS011;57598;50.888;4.746;2023-05-23T02:48:46;52.88;;;47.83;;
21569;SDS011;57598;50.888;4.746;2023-05-23T02:51:14;58.85;;;53.03;;
21569;SDS011;57598;50.888;4.746;2023-05-23T02:53:41;44.95;;;41.38;;
21569;SDS011;57598;50.888;4.746;2023-05-23T02:56:09;50.05;;;45.65;;
21569;SDS011;57598;50.888;4.746;2023-05-23T02:58:37;50.70;;;46.28;;
21569;SDS011;57598;50.888;4.746;2023-05-23T03:01:04;58.25;;;52.63;;
21569;SDS011;57598;50.888;4.746;2023-05-23T03:03:32;58.60;;;52.80;;
21569;SDS011;57598;50.888;4.746;2023-05-23T03:05:59;50.00;;;45.42;;
21569;SDS011;57598;50.888;4.746;2023-05-23T03:08:27;51.50;;;46.80;;
21569;SDS011;57598;50.888;4.746;2023-05-23T03:10:54;49.72;;;45.38;;
21569;SDS011;57598;50.888;4.746;2023-05-23T03:13:22;53.42;;;48.22;;
21569;SDS011;57598;50.888;4.746;2023-05-23T03:15:49;48.97;;;44.75;;
21569;SDS011;57598;50.888;4.746;2023-05-23T03:18:16;47.10;;;42.90;;
21569;SDS011;57598;50.888;4.746;2023-05-23T03:20:43;50.45;;;46.15;;
21569;SDS011;57598;50.888;4.746;2023-05-23T03:23:10;45.72;;;42.08;;
21569;SDS011;57598;50.888;4.746;2023-05-23T03:25:37;51.60;;;46.92;;
21569;SDS011;57598;50.888;4.746;2023-05-23T03:28:04;45.85;;;42.25;;
21569;SDS011;57598;50.888;4.746;2023-05-23T03:30:32;52.95;;;48.17;;
21569;SDS011;57598;50.888;4.746;2023-05-23T03:32:59;48.38;;;44.35;;
21569;SDS011;57598;50.888;4.746;2023-05-23T03:35:27;43.35;;;40.10;;
21569;SDS011;57598;50.888;4.746;2023-05-23T03:37:54;44.95;;;41.13;;
21569;SDS011;57598;50.888;4.746;2023-05-23T03:40:20;42.08;;;38.88;;
21569;SDS011;57598;50.888;4.746;2023-05-23T03:42:47;53.50;;;48.35;;
21569;SDS011;57598;50.888;4.746;2023-05-23T03:45:15;51.72;;;46.83;;
21569;SDS011;57598;50.888;4.746;2023-05-23T03:47:43;51.08;;;46.25;;
21569;SDS011;57598;50.888;4.746;2023-05-23T03:50:10;53.42;;;47.47;;
21569;SDS011;57598;50.888;4.746;2023-05-23T03:52:37;51.60;;;46.35;;
21569;SDS011;57598;50.888;4.746;2023-05-23T03:55:05;61.65;;;51.65;;
21569;SDS011;57598;50.888;4.746;2023-05-23T03:57:33;57.20;;;51.20;;
21569;SDS011;57598;50.888;4.746;2023-05-23T04:00:01;50.67;;;46.30;;
21569;SDS011;57598;50.888;4.746;2023-05-23T04:02:30;56.58;;;51.03;;
21569;SDS011;57598;50.888;4.746;2023-05-23T04:04:58;44.28;;;40.83;;
21569;SDS011;57598;50.888;4.746;2023-05-23T04:07:27;46.90;;;43.30;;
21569;SDS011;57598;50.888;4.746;2023-05-23T04:09:54;44.33;;;40.67;;
21569;SDS011;57598;50.888;4.746;2023-05-23T04:12:21;43.35;;;39.70;;
21569;SDS011;57598;50.888;4.746;2023-05-23T04:14:49;44.10;;;40.88;;
21569;SDS011;57598;50.888;4.746;2023-05-23T04:17:16;48.35;;;44.20;;
21569;SDS011;57598;50.888;4.746;2023-05-23T04:19:43;43.33;;;40.13;;
21569;SDS011;57598;50.888;4.746;2023-05-23T04:22:12;44.85;;;41.20;;
21569;SDS011;57598;50.888;4.746;2023-05-23T04:24:39;42.60;;;39.47;;
21569;SDS011;57598;50.888;4.746;2023-05-23T04:27:06;41.35;;;38.35;;
21569;SDS011;57598;50.888;4.746;2023-05-23T04:29:33;43.13;;;39.92;;
21569;SDS011;57598;50.888;4.746;2023-05-23T04:32:00;41.40;;;38.50;;
21569;SDS011;57598;50.888;4.746;2023-05-23T04:34:27;41.63;;;38.72;;
21569;SDS011;57598;50.888;4.746;2023-05-23T04:36:55;39.95;;;37.10;;
21569;SDS011;57598;50.888;4.746;2023-05-23T04:39:23;42.17;;;38.97;;
21569;SDS011;57598;50.888;4.746;2023-05-23T04:41:51;40.55;;;37.65;;
21569;SDS011;57598;50.888;4.746;2023-05-23T04:44:19;41.55;;;38.53;;
21569;SDS011;57598;50.888;4.746;2023-05-23T04:46:46;39.85;;;37.05;;
21569;SDS011;57598;50.888;4.746;2023-05-23T04:49:14;41.83;;;38.60;;
21569;SDS011;57598;50.888;4.746;2023-05-23T04:51:41;39.50;;;36.70;;
21569;SDS011;57598;50.888;4.746;2023-05-23T04:54:08;42.50;;;39.10;;
21569;SDS011;57598;50.888;4.746;2023-05-23T04:56:37;40.50;;;37.30;;
21569;SDS011;57598;50.888;4.746;2023-05-23T04:59:04;41.47;;;38.35;;
21569;SDS011;57598;50.888;4.746;2023-05-23T05:01:32;43.25;;;40.15;;
21569;SDS011;57598;50.888;4.746;2023-05-23T05:03:59;42.40;;;39.40;;
21569;SDS011;57598;50.888;4.746;2023-05-23T05:06:26;42.70;;;39.70;;
21569;SDS011;57598;50.888;4.746;2023-05-23T05:08:53;40.63;;;37.72;;
21569;SDS011;57598;50.888;4.746;2023-05-23T05:11:20;42.83;;;39.47;;
21569;SDS011;57598;50.888;4.746;2023-05-23T05:13:49;41.55;;;38.47;;
21569;SDS011;57598;50.888;4.746;2023-05-23T05:16:16;40.63;;;37.72;;
21569;SDS011;57598;50.888;4.746;2023-05-23T05:18:43;44.97;;;41.50;;
21569;SDS011;57598;50.888;4.746;2023-05-23T05:21:10;41.10;;;37.90;;
21569;SDS011;57598;50.888;4.746;2023-05-23T05:23:37;42.47;;;39.47;;
21569;SDS011;57598;50.888;4.746;2023-05-23T05:26:04;43.38;;;40.28;;
21569;SDS011;57598;50.888;4.746;2023-05-23T05:28:32;40.85;;;37.90;;
21569;SDS011;57598;50.888;4.746;2023-05-23T05:31:00;43.42;;;40.20;;
21569;SDS011;57598;50.888;4.746;2023-05-23T05:33:29;43.33;;;39.75;;
21569;SDS011;57598;50.888;4.746;2023-05-23T05:35:59;60.05;;;45.30;;
21569;SDS011;57598;50.888;4.746;2023-05-23T05:38:27;44.88;;;41.40;;
21569;SDS011;57598;50.888;4.746;2023-05-23T05:40:54;42.42;;;39.13;;
21569;SDS011;57598;50.888;4.746;2023-05-23T05:43:21;47.55;;;43.35;;
21569;SDS011;57598;50.888;4.746;2023-05-23T05:45:48;43.05;;;39.65;;
21569;SDS011;57598;50.888;4.746;2023-05-23T05:48:17;43.20;;;39.90;;
21569;SDS011;57598;50.888;4.746;2023-05-23T05:50:44;45.63;;;41.92;;
21569;SDS011;57598;50.888;4.746;2023-05-23T05:53:11;48.10;;;43.65;;
21569;SDS011;57598;50.888;4.746;2023-05-23T05:55:38;42.58;;;39.05;;
21569;SDS011;57598;50.888;4.746;2023-05-23T05:58:05;44.92;;;40.83;;
21569;SDS011;57598;50.888;4.746;2023-05-23T06:00:32;41.25;;;37.97;;
21569;SDS011;57598;50.888;4.746;2023-05-23T06:03:05;41.22;;;38.05;;
21569;SDS011;57598;50.888;4.746;2023-05-23T06:05:34;43.33;;;39.63;;
21569;SDS011;57598;50.888;4.746;2023-05-23T06:08:03;43.00;;;39.50;;
21569;SDS011;57598;50.888;4.746;2023-05-23T06:10:30;47.92;;;43.70;;
21569;SDS011;57598;50.888;4.746;2023-05-23T06:12:57;47.67;;;42.50;;
21569;SDS011;57598;50.888;4.746;2023-05-23T06:15:25;44.65;;;40.67;;
21569;SDS011;57598;50.888;4.746;2023-05-23T06:17:52;41.35;;;38.15;;
21569;SDS011;57598;50.888;4.746;2023-05-23T06:20:19;48.00;;;43.70;;
21569;SDS011;57598;50.888;4.746;2023-05-23T06:22:47;45.35;;;41.50;;
21569;SDS011;57598;50.888;4.746;2023-05-23T06:25:14;51.22;;;46.13;;
21569;SDS011;57598;50.888;4.746;2023-05-23T06:27:41;52.58;;;46.95;;
21569;SDS011;57598;50.888;4.746;2023-05-23T06:30:09;51.00;;;45.75;;
21569;SDS011;57598;50.888;4.746;2023-05-23T06:32:36;55.90;;;47.65;;
21569;SDS011;57598;50.888;4.746;2023-05-23T06:35:04;44.60;;;40.58;;
21569;SDS011;57598;50.888;4.746;2023-05-23T06:37:31;42.00;;;38.85;;
21569;SDS011;57598;50.888;4.746;2023-05-23T06:40:00;42.58;;;39.28;;
21569;SDS011;57598;50.888;4.746;2023-05-23T06:42:27;45.47;;;41.42;;
21569;SDS011;57598;50.888;4.746;2023-05-23T06:44:54;43.20;;;39.83;;
21569;SDS011;57598;50.888;4.746;2023-05-23T06:47:21;47.95;;;43.47;;
21569;SDS011;57598;50.888;4.746;2023-05-23T06:49:48;43.03;;;39.85;;
21569;SDS011;57598;50.888;4.746;2023-05-23T06:52:15;45.33;;;41.72;;
21569;SDS011;57598;50.888;4.746;2023-05-23T06:54:42;42.22;;;39.13;;
21569;SDS011;57598;50.888;4.746;2023-05-23T06:57:10;50.67;;;45.28;;
21569;SDS011;57598;50.888;4.746;2023-05-23T06:59:37;49.72;;;45.17;;
21569;SDS011;57598;50.888;4.746;2023-05-23T07:02:05;42.13;;;38.67;;
21569;SDS011;57598;50.888;4.746;2023-05-23T07:04:34;43.03;;;39.33;;
21569;SDS011;57598;50.888;4.746;2023-05-23T07:07:01;48.92;;;44.05;;
21569;SDS011;57598;50.888;4.746;2023-05-23T07:09:28;41.97;;;38.88;;
21569;SDS011;57598;50.888;4.746;2023-05-23T07:11:55;38.80;;;35.97;;
21569;SDS011;57598;50.888;4.746;2023-05-23T07:14:23;41.17;;;38.17;;
21569;SDS011;57598;50.888;4.746;2023-05-23T07:16:50;41.65;;;38.55;;
21569;SDS011;57598;50.888;4.746;2023-05-23T07:19:17;45.40;;;40.63;;
21569;SDS011;57598;50.888;4.746;2023-05-23T07:21:50;44.58;;;40.33;;
21569;SDS011;57598;50.888;4.746;2023-05-23T07:24:17;41.92;;;38.33;;
21569;SDS011;57598;50.888;4.746;2023-05-23T07:26:44;39.78;;;36.58;;
21569;SDS011;57598;50.888;4.746;2023-05-23T07:29:11;39.10;;;36.17;;
21569;SDS011;57598;50.888;4.746;2023-05-23T07:31:40;39.72;;;36.33;;
21569;SDS011;57598;50.888;4.746;2023-05-23T07:34:07;39.20;;;36.33;;
21569;SDS011;57598;50.888;4.746;2023-05-23T07:36:34;38.63;;;35.97;;
21569;SDS011;57598;50.888;4.746;2023-05-23T07:39:01;40.13;;;37.00;;
21569;SDS011;57598;50.888;4.746;2023-05-23T07:41:29;39.53;;;36.05;;
21569;SDS011;57598;50.888;4.746;2023-05-23T07:43:56;41.88;;;38.42;;
21569;SDS011;57598;50.888;4.746;2023-05-23T07:46:23;40.33;;;37.33;;
21569;SDS011;57598;50.888;4.746;2023-05-23T07:48:51;43.92;;;40.05;;
21569;SDS011;57598;50.888;4.746;2023-05-23T07:51:19;44.20;;;39.75;;
21569;SDS011;57598;50.888;4.746;2023-05-23T07:53:46;38.47;;;35.72;;
21569;SDS011;57598;50.888;4.746;2023-05-23T07:56:14;37.33;;;34.83;;
21569;SDS011;57598;50.888;4.746;2023-05-23T07:58:42;36.33;;;34.03;;
21569;SDS011;57598;50.888;4.746;2023-05-23T08:01:09;37.97;;;35.20;;
21569;SDS011;57598;50.888;4.746;2023-05-23T08:03:36;39.70;;;36.70;;
21569;SDS011;57598;50.888;4.746;2023-05-23T08:06:05;35.50;;;33.30;;
21569;SDS011;57598;50.888;4.746;2023-05-23T08:08:33;39.38;;;36.28;;
21569;SDS011;57598;50.888;4.746;2023-05-23T08:11:00;38.13;;;35.60;;
21569;SDS011;57598;50.888;4.746;2023-05-23T08:13:27;37.97;;;34.85;;
21569;SDS011;57598;50.888;4.746;2023-05-23T08:15:55;39.17;;;36.08;;
21569;SDS011;57598;50.888;4.746;2023-05-23T08:18:22;35.42;;;33.22;;
21569;SDS011;57598;50.888;4.746;2023-05-23T08:20:49;38.42;;;35.63;;
21569;SDS011;57598;50.888;4.746;2023-05-23T08:23:18;36.05;;;33.80;;
21569;SDS011;57598;50.888;4.746;2023-05-23T08:25:45;37.50;;;34.60;;
21569;SDS011;57598;50.888;4.746;2023-05-23T08:28:12;35.75;;;33.65;;
21569;SDS011;57598;50.888;4.746;2023-05-23T08:30:39;35.55;;;33.35;;
21569;SDS011;57598;50.888;4.746;2023-05-23T08:33:06;35.20;;;33.10;;
21569;SDS011;57598;50.888;4.746;2023-05-23T08:35:33;33.10;;;31.20;;
21569;SDS011;57598;50.888;4.746;2023-05-23T08:38:00;31.65;;;29.30;;
21569;SDS011;57598;50.888;4.746;2023-05-23T08:40:29;31.15;;;29.20;;
21569;SDS011;57598;50.888;4.746;2023-05-23T08:42:56;31.65;;;29.83;;
21569;SDS011;57598;50.888;4.746;2023-05-23T08:45:24;27.42;;;25.83;;
21569;SDS011;57598;50.888;4.746;2023-05-23T08:47:53;25.08;;;23.45;;
21569;SDS011;57598;50.888;4.746;2023-05-23T08:50:21;23.45;;;21.60;;
21569;SDS011;57598;50.888;4.746;2023-05-23T08:52:53;21.65;;;19.75;;
21569;SDS011;57598;50.888;4.746;2023-05-23T08:55:21;23.40;;;21.23;;
21569;SDS011;57598;50.888;4.746;2023-05-23T08:57:51;19.67;;;18.17;;
21569;SDS011;57598;50.888;4.746;2023-05-23T09:00:19;21.05;;;19.65;;
21569;SDS011;57598;50.888;4.746;2023-05-23T09:02:47;19.05;;;17.95;;
21569;SDS011;57598;50.888;4.746;2023-05-23T09:05:14;21.98;;;20.17;;
21569;SDS011;57598;50.888;4.746;2023-05-23T09:07:41;19.38;;;18.13;;
21569;SDS011;57598;50.888;4.746;2023-05-23T09:10:12;22.92;;;21.30;;
21569;SDS011;57598;50.888;4.746;2023-05-23T09:12:41;21.08;;;19.67;;
21569;SDS011;57598;50.888;4.746;2023-05-23T09:15:10;19.35;;;18.25;;
21569;SDS011;57598;50.888;4.746;2023-05-23T09:17:37;22.08;;;20.40;;
21569;SDS011;57598;50.888;4.746;2023-05-23T09:20:09;20.02;;;18.83;;
21569;SDS011;57598;50.888;4.746;2023-05-23T09:22:37;19.52;;;18.33;;
21569;SDS011;57598;50.888;4.746;2023-05-23T09:25:04;19.20;;;17.90;;
21569;SDS011;57598;50.888;4.746;2023-05-23T09:27:32;18.30;;;17.20;;
21569;SDS011;57598;50.888;4.746;2023-05-23T09:30:04;18.92;;;17.83;;
21569;SDS011;57598;50.888;4.746;2023-05-23T09:32:33;20.05;;;18.75;;
21569;SDS011;57598;50.888;4.746;2023-05-23T09:35:01;19.35;;;18.15;;
21569;SDS011;57598;50.888;4.746;2023-05-23T09:37:29;18.80;;;17.70;;
21569;SDS011;57598;50.888;4.746;2023-05-23T09:39:58;21.98;;;20.48;;
21569;SDS011;57598;50.888;4.746;2023-05-23T09:42:30;32.15;;;20.75;;
21569;SDS011;57598;50.888;4.746;2023-05-23T09:44:58;18.75;;;17.55;;
21569;SDS011;57598;50.888;4.746;2023-05-23T09:47:26;20.27;;;19.00;;
21569;SDS011;57598;50.888;4.746;2023-05-23T09:49:54;19.77;;;18.58;;
21569;SDS011;57598;50.888;4.746;2023-05-23T09:52:21;18.75;;;17.52;;
21569;SDS011;57598;50.888;4.746;2023-05-23T09:54:48;18.10;;;17.10;;
21569;SDS011;57598;50.888;4.746;2023-05-23T09:57:15;19.50;;;18.30;;
21569;SDS011;57598;50.888;4.746;2023-05-23T09:59:45;19.75;;;18.20;;
21569;SDS011;57598;50.888;4.746;2023-05-23T10:02:29;17.38;;;16.38;;
21569;SDS011;57598;50.888;4.746;2023-05-23T10:05:26;19.73;;;18.42;;
21569;SDS011;57598;50.888;4.746;2023-05-23T10:08:00;18.73;;;17.63;;
21569;SDS011;57598;50.888;4.746;2023-05-23T10:10:31;20.55;;;18.92;;
21569;SDS011;57598;50.888;4.746;2023-05-23T10:13:01;18.95;;;17.85;;
21569;SDS011;57598;50.888;4.746;2023-05-23T10:15:33;20.05;;;18.75;;
21569;SDS011;57598;50.888;4.746;2023-05-23T10:18:05;19.83;;;18.73;;
21569;SDS011;57598;50.888;4.746;2023-05-23T10:20:38;17.70;;;16.70;;
21569;SDS011;57598;50.888;4.746;2023-05-23T10:23:07;17.77;;;16.75;;
21569;SDS011;57598;50.888;4.746;2023-05-23T10:25:34;21.10;;;19.75;;
21569;SDS011;57598;50.888;4.746;2023-05-23T10:28:02;23.17;;;21.27;;
21569;SDS011;57598;50.888;4.746;2023-05-23T10:30:33;20.20;;;18.90;;
21569;SDS011;57598;50.888;4.746;2023-05-23T10:33:01;21.33;;;19.67;;
21569;SDS011;57598;50.888;4.746;2023-05-23T10:35:32;20.55;;;19.05;;
21569;SDS011;57598;50.888;4.746;2023-05-23T10:38:09;17.80;;;16.80;;
21569;SDS011;57598;50.888;4.746;2023-05-23T10:40:49;19.77;;;18.38;;
21569;SDS011;57598;50.888;4.746;2023-05-23T10:43:24;17.65;;;16.55;;
21569;SDS011;57598;50.888;4.746;2023-05-23T10:45:54;20.80;;;19.50;;
21569;SDS011;57598;50.888;4.746;2023-05-23T10:48:22;18.70;;;17.60;;
21569;SDS011;57598;50.888;4.746;2023-05-23T10:51:04;20.75;;;19.30;;
21569;SDS011;57598;50.888;4.746;2023-05-23T10:53:33;19.20;;;18.00;;
21569;SDS011;57598;50.888;4.746;2023-05-23T10:56:03;18.60;;;17.50;;
21569;SDS011;57598;50.888;4.746;2023-05-23T10:58:31;18.92;;;17.73;;
21569;SDS011;57598;50.888;4.746;2023-05-23T11:00:59;18.02;;;17.02;;
21569;SDS011;57598;50.888;4.746;2023-05-23T11:03:34;20.75;;;19.00;;
21569;SDS011;57598;50.888;4.746;2023-05-23T11:06:04;17.92;;;16.83;;
21569;SDS011;57598;50.888;4.746;2023-05-23T11:09:00;19.08;;;17.77;;
21569;SDS011;57598;50.888;4.746;2023-05-23T11:14:30;20.98;;;19.27;;
21569;SDS011;57598;50.888;4.746;2023-05-23T11:16:58;20.27;;;18.88;;
21569;SDS011;57598;50.888;4.746;2023-05-23T11:19:27;17.60;;;16.60;;
21569;SDS011;57598;50.888;4.746;2023-05-23T11:21:56;17.80;;;16.60;;
21569;SDS011;57598;50.888;4.746;2023-05-23T11:27:14;19.70;;;18.42;;
21569;SDS011;57598;50.888;4.746;2023-05-23T11:29:44;18.42;;;17.33;;
21569;SDS011;57598;50.888;4.746;2023-05-23T11:32:12;18.67;;;17.58;;
21569;SDS011;57598;50.888;4.746;2023-05-23T11:34:39;18.15;;;17.02;;
21569;SDS011;57598;50.888;4.746;2023-05-23T11:37:08;18.95;;;17.63;;
21569;SDS011;57598;50.888;4.746;2023-05-23T11:39:36;19.92;;;18.52;;
21569;SDS011;57598;50.888;4.746;2023-05-23T11:42:03;19.80;;;18.60;;
21569;SDS011;57598;50.888;4.746;2023-05-23T11:44:30;17.88;;;16.88;;
21569;SDS011;57598;50.888;4.746;2023-05-23T11:46:58;20.73;;;19.42;;
21569;SDS011;57598;50.888;4.746;2023-05-23T11:49:27;18.58;;;17.48;;
21569;SDS011;57598;50.888;4.746;2023-05-23T11:51:55;17.67;;;16.60;;
21569;SDS011;57598;50.888;4.746;2023-05-23T11:54:24;17.73;;;16.63;;
21569;SDS011;57598;50.888;4.746;2023-05-23T11:56:51;17.50;;;16.50;;
21569;SDS011;57598;50.888;4.746;2023-05-23T11:59:18;17.58;;;16.48;;
21569;SDS011;57598;50.888;4.746;2023-05-23T12:01:47;22.23;;;20.65;;
21569;SDS011;57598;50.888;4.746;2023-05-23T12:04:14;18.20;;;17.10;;
21569;SDS011;57598;50.888;4.746;2023-05-23T12:06:41;17.98;;;16.88;;
21569;SDS011;57598;50.888;4.746;2023-05-23T12:09:09;16.80;;;15.80;;
21569;SDS011;57598;50.888;4.746;2023-05-23T12:11:39;18.83;;;17.50;;
21569;SDS011;57598;50.888;4.746;2023-05-23T12:14:07;17.60;;;16.58;;
21569;SDS011;57598;50.888;4.746;2023-05-23T12:16:35;17.55;;;16.45;;
21569;SDS011;57598;50.888;4.746;2023-05-23T12:19:03;18.85;;;17.65;;
21569;SDS011;57598;50.888;4.746;2023-05-23T12:21:41;18.48;;;17.38;;
21569;SDS011;57598;50.888;4.746;2023-05-23T12:24:11;18.13;;;17.02;;
21569;SDS011;57598;50.888;4.746;2023-05-23T12:29:19;19.35;;;17.77;;
21569;SDS011;57598;50.888;4.746;2023-05-23T12:31:47;20.65;;;19.15;;
21569;SDS011;57598;50.888;4.746;2023-05-23T12:34:15;19.02;;;17.83;;
21569;SDS011;57598;50.888;4.746;2023-05-23T12:36:43;20.20;;;18.80;;
21569;SDS011;57598;50.888;4.746;2023-05-23T12:39:13;19.27;;;18.10;;
21569;SDS011;57598;50.888;4.746;2023-05-23T12:41:40;18.70;;;17.60;;
21569;SDS011;57598;50.888;4.746;2023-05-23T12:44:10;20.42;;;18.98;;
21569;SDS011;57598;50.888;4.746;2023-05-23T12:46:41;18.60;;;17.50;;
21569;SDS011;57598;50.888;4.746;2023-05-23T12:49:09;20.08;;;18.50;;
21569;SDS011;57598;50.888;4.746;2023-05-23T12:51:37;20.27;;;18.90;;
21569;SDS011;57598;50.888;4.746;2023-05-23T12:54:04;21.20;;;19.45;;
21569;SDS011;57598;50.888;4.746;2023-05-23T12:56:31;25.88;;;19.58;;
21569;SDS011;57598;50.888;4.746;2023-05-23T12:58:58;20.10;;;18.40;;
21569;SDS011;57598;50.888;4.746;2023-05-23T13:01:27;21.75;;;20.00;;
21569;SDS011;57598;50.888;4.746;2023-05-23T13:03:54;18.77;;;17.67;;
21569;SDS011;57598;50.888;4.746;2023-05-23T13:06:21;19.50;;;18.33;;
21569;SDS011;57598;50.888;4.746;2023-05-23T13:08:48;17.95;;;16.95;;
21569;SDS011;57598;50.888;4.746;2023-05-23T13:11:15;18.67;;;17.30;;
21569;SDS011;57598;50.888;4.746;2023-05-23T13:13:43;19.75;;;18.50;;
21569;SDS011;57598;50.888;4.746;2023-05-23T13:16:11;19.83;;;18.63;;
21569;SDS011;57598;50.888;4.746;2023-05-23T13:18:39;21.30;;;19.25;;
21569;SDS011;57598;50.888;4.746;2023-05-23T13:21:06;20.58;;;18.92;;
21569;SDS011;57598;50.888;4.746;2023-05-23T13:23:34;19.20;;;17.95;;
21569;SDS011;57598;50.888;4.746;2023-05-23T13:26:03;19.27;;;17.98;;
21569;SDS011;57598;50.888;4.746;2023-05-23T13:28:30;18.17;;;17.13;;
21569;SDS011;57598;50.888;4.746;2023-05-23T13:30:58;18.95;;;17.85;;
21569;SDS011;57598;50.888;4.746;2023-05-23T13:33:25;17.52;;;16.52;;
21569;SDS011;57598;50.888;4.746;2023-05-23T13:35:54;19.23;;;17.90;;
21569;SDS011;57598;50.888;4.746;2023-05-23T13:38:21;16.98;;;15.98;;
21569;SDS011;57598;50.888;4.746;2023-05-23T13:40:48;19.80;;;17.80;;
21569;SDS011;57598;50.888;4.746;2023-05-23T13:43:17;18.17;;;17.08;;
21569;SDS011;57598;50.888;4.746;2023-05-23T13:45:44;21.52;;;19.85;;
21569;SDS011;57598;50.888;4.746;2023-05-23T13:48:11;19.95;;;18.65;;
21569;SDS011;57598;50.888;4.746;2023-05-23T13:50:38;18.63;;;17.52;;
21569;SDS011;57598;50.888;4.746;2023-05-23T13:53:06;19.13;;;17.92;;
21569;SDS011;57598;50.888;4.746;2023-05-23T13:55:39;21.35;;;19.85;;
21569;SDS011;57598;50.888;4.746;2023-05-23T13:58:06;19.40;;;18.08;;
21569;SDS011;57598;50.888;4.746;2023-05-23T14:00:33;20.63;;;19.38;;
21569;SDS011;57598;50.888;4.746;2023-05-23T14:03:01;19.70;;;18.50;;
21569;SDS011;57598;50.888;4.746;2023-05-23T14:05:28;19.40;;;17.77;;
21569;SDS011;57598;50.888;4.746;2023-05-23T14:07:56;21.70;;;19.65;;
21569;SDS011;57598;50.888;4.746;2023-05-23T14:10:24;18.95;;;17.75;;
21569;SDS011;57598;50.888;4.746;2023-05-23T14:12:53;19.10;;;17.95;;
21569;SDS011;57598;50.888;4.746;2023-05-23T14:15:20;18.38;;;17.20;;
21569;SDS011;57598;50.888;4.746;2023-05-23T14:17:47;21.17;;;19.23;;
21569;SDS011;57598;50.888;4.746;2023-05-23T14:20:19;20.65;;;19.15;;
21569;SDS011;57598;50.888;4.746;2023-05-23T14:22:46;21.65;;;19.38;;
21569;SDS011;57598;50.888;4.746;2023-05-23T14:25:13;22.52;;;20.73;;
21569;SDS011;57598;50.888;4.746;2023-05-23T14:27:42;20.65;;;18.88;;
21569;SDS011;57598;50.888;4.746;2023-05-23T14:30:09;22.52;;;20.02;;
21569;SDS011;57598;50.888;4.746;2023-05-23T14:32:36;19.17;;;18.08;;
21569;SDS011;57598;50.888;4.746;2023-05-23T14:35:04;20.50;;;19.20;;
21569;SDS011;57598;50.888;4.746;2023-05-23T14:37:32;21.08;;;19.63;;